Time;durP1;ratioP1;P1;durP2;ratioP2;P2;SDS_P1;SDS_P2;PMS_P1;PMS_P2;Temp;Humidity;BMP_temperature;BMP_pressure;BME280_temperature;BME280_humidity;BME280_pressure;Samples;Min_cycle;Max_cycle;Signal;HPM_P1;HPM_P2
2022/03/09 00:00:14;;;;;;;20.57;12.53;;;-3.10;99.90;;;;;;5104959;28;20223;-79
2022/03/09 00:02:41;;;;;;;20.23;12.20;;;-3.20;99.90;;;;;;5101631;28;20207;-79
2022/03/09 00:05:09;;;;;;;19.30;12.97;;;-3.20;99.90;;;;;;5102690;28;20256;-78
2022/03/09 00:07:36;;;;;;;18.87;12.07;;;-3.20;99.90;;;;;;5100032;28;20203;-79
2022/03/09 00:10:03;;;;;;;22.50;12.53;;;-3.20;99.90;;;;;;5099033;28;20230;-79
2022/03/09 00:12:30;;;;;;;19.83;12.20;;;-3.30;99.90;;;;;;5098706;28;20532;-79
2022/03/09 00:14:57;;;;;;;19.63;11.27;;;-3.20;99.90;;;;;;5103084;28;20196;-79
2022/03/09 00:17:25;;;;;;;18.83;11.70;;;-3.20;99.90;;;;;;5102761;28;20227;-78
2022/03/09 00:19:51;;;;;;;17.90;11.33;;;-3.40;99.90;;;;;;5096645;28;20230;-79
2022/03/09 00:22:18;;;;;;;20.37;11.77;;;-3.50;99.90;;;;;;5097259;28;20224;-78
2022/03/09 00:24:44;;;;;;;19.07;12.07;;;-3.60;99.90;;;;;;5096368;28;20210;-78
2022/03/09 00:27:12;;;;;;;22.47;12.93;;;-3.60;99.90;;;;;;5098859;28;20221;-78
2022/03/09 00:29:38;;;;;;;23.17;13.57;;;-3.60;99.90;;;;;;5100031;28;20276;-77
2022/03/09 00:32:06;;;;;;;20.73;12.13;;;-3.70;99.90;;;;;;5100474;28;20201;-78
2022/03/09 00:34:35;;;;;;;21.63;11.83;;;-3.80;99.90;;;;;;5100475;28;20196;-78
2022/03/09 00:37:02;;;;;;;22.50;12.90;;;-3.90;99.90;;;;;;5101282;28;20207;-79
2022/03/09 00:39:29;;;;;;;19.67;11.50;;;-3.90;99.90;;;;;;5101222;28;20242;-78
2022/03/09 00:41:55;;;;;;;19.90;11.83;;;-3.90;99.90;;;;;;5102202;28;20199;-80
2022/03/09 00:44:22;;;;;;;19.67;11.80;;;-3.90;99.90;;;;;;5103900;28;20322;-79
2022/03/09 00:46:49;;;;;;;20.50;12.27;;;-3.90;99.90;;;;;;5103889;28;20202;-78
2022/03/09 00:49:16;;;;;;;19.27;12.40;;;-3.90;99.90;;;;;;5103942;28;20253;-79
2022/03/09 00:51:44;;;;;;;19.07;12.13;;;-3.80;99.90;;;;;;5104227;28;20203;-79
2022/03/09 00:54:11;;;;;;;25.63;12.83;;;-3.90;99.90;;;;;;5104562;28;20256;-79
2022/03/09 00:56:38;;;;;;;18.23;12.07;;;-4.00;99.90;;;;;;5103580;28;20265;-79
2022/03/09 00:59:04;;;;;;;17.70;11.70;;;-4.00;99.90;;;;;;5103744;28;20218;-79
2022/03/09 01:01:31;;;;;;;24.33;11.93;;;-3.90;99.90;;;;;;5103447;28;20195;-79
2022/03/09 01:03:58;;;;;;;24.97;12.03;;;-3.90;99.90;;;;;;5103263;28;20229;-79
2022/03/09 01:06:25;;;;;;;22.40;13.30;;;-4.00;99.90;;;;;;5102917;28;20203;-78
2022/03/09 01:08:54;;;;;;;20.20;12.33;;;-4.10;99.90;;;;;;5103307;28;20199;-78
2022/03/09 01:11:21;;;;;;;23.27;12.40;;;-4.10;99.90;;;;;;5066875;28;1028634;-78
2022/03/09 01:13:48;;;;;;;19.77;12.10;;;-4.00;99.90;;;;;;5104152;28;20260;-79
2022/03/09 01:16:15;;;;;;;23.03;12.27;;;-4.00;99.90;;;;;;5103719;28;20202;-78
2022/03/09 01:18:41;;;;;;;21.67;11.57;;;-4.10;99.90;;;;;;5099279;28;20200;-79
2022/03/09 01:21:08;;;;;;;23.77;11.43;;;-4.00;99.90;;;;;;5098735;28;20256;-79
2022/03/09 01:23:35;;;;;;;19.57;10.87;;;-4.10;99.90;;;;;;5099504;28;20546;-80
2022/03/09 01:26:04;;;;;;;18.10;10.53;;;-4.20;99.90;;;;;;5098675;28;20206;-79
2022/03/09 01:28:31;;;;;;;18.20;11.17;;;-4.10;99.90;;;;;;5080791;28;20253;-77
2022/03/09 01:30:57;;;;;;;21.47;10.93;;;-3.90;99.90;;;;;;5098680;28;20209;-78
2022/03/09 01:33:24;;;;;;;15.73;10.00;;;-4.10;99.90;;;;;;5098253;28;20201;-78
2022/03/09 01:35:51;;;;;;;19.20;10.20;;;-4.20;99.90;;;;;;5098359;28;20202;-79
2022/03/09 01:38:18;;;;;;;18.80;11.43;;;-3.90;99.90;;;;;;5097784;28;20209;-78
2022/03/09 01:40:45;;;;;;;17.67;9.97;;;-4.20;99.90;;;;;;5097786;28;20279;-79
2022/03/09 01:43:14;;;;;;;19.23;9.50;;;-4.10;99.90;;;;;;5098597;28;20279;-78
2022/03/09 01:45:42;;;;;;;16.23;10.00;;;-4.20;99.90;;;;;;5098705;28;20210;-78
2022/03/09 01:48:09;;;;;;;18.17;10.93;;;-4.40;99.90;;;;;;5099899;28;20204;-78
2022/03/09 01:50:35;;;;;;;20.40;10.73;;;-4.20;99.90;;;;;;5097143;28;20653;-78
2022/03/09 01:53:02;;;;;;;15.33;9.73;;;-4.30;99.90;;;;;;5097452;28;20240;-78
2022/03/09 01:55:29;;;;;;;17.07;10.60;;;-4.20;99.90;;;;;;5097385;28;20247;-79
2022/03/09 01:57:55;;;;;;;17.27;10.73;;;-4.30;99.90;;;;;;5079761;28;20194;-79
2022/03/09 02:00:26;;;;;;;19.87;11.10;;;-4.40;99.90;;;;;;5097593;28;20233;-78
2022/03/09 02:02:52;;;;;;;21.10;11.73;;;-4.50;99.90;;;;;;5097374;28;20197;-80
2022/03/09 02:05:19;;;;;;;19.13;11.67;;;-4.60;99.90;;;;;;5097944;28;20660;-79
2022/03/09 02:10:30;;;;;;;18.07;11.57;;;-4.80;99.90;;;;;;5097488;28;20234;-79
2022/03/09 02:12:57;;;;;;;20.50;12.07;;;-4.80;99.90;;;;;;5098839;28;20208;-79
2022/03/09 02:15:26;;;;;;;19.93;12.53;;;-4.80;99.90;;;;;;5101968;28;20201;-78
2022/03/09 02:17:52;;;;;;;21.17;12.93;;;-4.70;99.90;;;;;;5100134;28;20201;-78
2022/03/09 02:20:19;;;;;;;21.03;12.73;;;-4.60;99.90;;;;;;5098256;28;20248;-80
2022/03/09 02:22:47;;;;;;;21.47;13.17;;;-4.70;99.90;;;;;;5098778;28;20193;-78
2022/03/09 02:25:16;;;;;;;21.83;12.90;;;-4.70;99.90;;;;;;5098681;28;20202;-79
2022/03/09 02:27:44;;;;;;;26.50;13.47;;;-4.90;99.90;;;;;;5098515;28;20675;-78
2022/03/09 02:30:16;;;;;;;20.43;13.43;;;-5.10;99.90;;;;;;5098516;28;20205;-79
2022/03/09 02:32:46;;;;;;;21.03;12.87;;;-5.10;99.90;;;;;;5098626;28;20200;-77
2022/03/09 02:35:14;;;;;;;19.40;12.53;;;-5.10;99.90;;;;;;5097769;28;20203;-78
2022/03/09 02:37:42;;;;;;;25.07;13.17;;;-5.00;99.90;;;;;;5097305;28;20202;-78
2022/03/09 02:40:12;;;;;;;26.20;13.10;;;-5.10;99.90;;;;;;5097387;28;20240;-78
2022/03/09 02:42:40;;;;;;;19.33;13.17;;;-5.10;99.90;;;;;;5097663;28;20204;-78
2022/03/09 02:45:07;;;;;;;21.53;13.33;;;-5.10;99.90;;;;;;5098290;28;20201;-78
2022/03/09 02:47:34;;;;;;;26.10;13.20;;;-5.20;99.90;;;;;;5101026;28;20202;-79
2022/03/09 02:50:01;;;;;;;20.90;12.80;;;-5.40;99.90;;;;;;5097263;28;20226;-80
2022/03/09 02:52:28;;;;;;;21.90;13.03;;;-5.50;99.90;;;;;;5097741;28;20214;-79
2022/03/09 02:54:54;;;;;;;20.13;12.70;;;-5.30;99.90;;;;;;5097734;28;20200;-78
2022/03/09 02:57:22;;;;;;;20.90;12.60;;;-5.50;99.90;;;;;;5097926;28;20196;-79
2022/03/09 02:59:50;;;;;;;21.57;13.63;;;-5.50;99.90;;;;;;5097292;28;20247;-78
2022/03/09 03:02:17;;;;;;;23.73;14.37;;;-5.50;99.90;;;;;;5097305;28;20226;-79
2022/03/09 03:04:43;;;;;;;26.20;13.67;;;-5.40;99.90;;;;;;5079014;28;20724;-78
2022/03/09 03:07:10;;;;;;;27.17;14.10;;;-5.40;99.90;;;;;;5097702;28;20196;-79
2022/03/09 03:09:37;;;;;;;24.20;13.77;;;-5.50;99.90;;;;;;5096877;28;20232;-79
2022/03/09 03:12:04;;;;;;;22.90;13.13;;;-5.30;99.90;;;;;;5097005;28;20247;-79
2022/03/09 03:14:32;;;;;;;22.37;13.23;;;-5.30;99.90;;;;;;5096739;28;20203;-79
2022/03/09 03:16:59;;;;;;;21.57;12.90;;;-5.20;99.90;;;;;;5096956;28;20204;-79
2022/03/09 03:19:25;;;;;;;20.43;12.27;;;-5.20;99.90;;;;;;5096968;28;20201;-78
2022/03/09 03:21:52;;;;;;;21.90;13.63;;;-5.30;99.90;;;;;;5097629;28;20200;-78
2022/03/09 03:24:19;;;;;;;22.33;12.43;;;-5.20;99.90;;;;;;5096892;28;20239;-79
2022/03/09 03:26:45;;;;;;;23.73;13.57;;;-5.20;99.90;;;;;;5096693;28;20253;-79
2022/03/09 03:29:12;;;;;;;30.57;14.50;;;-5.20;99.90;;;;;;5096728;28;20193;-78
2022/03/09 03:31:40;;;;;;;23.83;13.63;;;-5.30;99.90;;;;;;5097516;28;20212;-79
2022/03/09 03:34:06;;;;;;;25.63;13.10;;;-5.50;99.90;;;;;;5097516;28;20200;-78
2022/03/09 03:36:33;;;;;;;21.00;13.37;;;-5.60;99.90;;;;;;5097058;28;20200;-78
2022/03/09 03:39:00;;;;;;;22.30;12.90;;;-5.40;99.90;;;;;;5095690;28;20273;-79
2022/03/09 03:41:26;;;;;;;22.00;12.93;;;-5.30;99.90;;;;;;5095934;28;20220;-78
2022/03/09 03:43:53;;;;;;;23.97;13.57;;;-5.20;99.90;;;;;;5097008;28;20196;-78
2022/03/09 03:46:20;;;;;;;24.10;12.67;;;-5.20;99.90;;;;;;5096032;28;20196;-78
2022/03/09 03:48:48;;;;;;;22.43;13.87;;;-5.20;99.90;;;;;;5095810;28;20193;-79
2022/03/09 03:51:14;;;;;;;20.53;13.33;;;-5.30;99.90;;;;;;5096400;28;20720;-78
2022/03/09 03:53:41;;;;;;;24.50;13.40;;;-5.50;99.90;;;;;;5096731;28;20203;-79
2022/03/09 03:56:08;;;;;;;23.13;14.33;;;-5.60;99.90;;;;;;5096325;28;20200;-79
2022/03/09 03:58:35;;;;;;;23.43;14.17;;;-5.60;99.90;;;;;;5096626;28;20250;-78
2022/03/09 04:01:01;;;;;;;25.00;14.40;;;-5.70;99.90;;;;;;5095691;28;20586;-79
2022/03/09 04:03:28;;;;;;;23.03;13.40;;;-5.70;99.90;;;;;;5104217;28;20203;-78
2022/03/09 04:05:56;;;;;;;30.90;13.40;;;-5.50;99.90;;;;;;5104397;28;20196;-79
2022/03/09 04:08:23;;;;;;;25.10;13.20;;;-5.50;99.90;;;;;;5103678;28;20196;-80
2022/03/09 04:10:51;;;;;;;18.70;12.03;;;-5.70;99.90;;;;;;5100855;28;20247;-79
2022/03/09 04:13:17;;;;;;;21.70;13.33;;;-5.70;99.90;;;;;;5097691;28;20196;-79
2022/03/09 04:15:44;;;;;;;22.33;13.33;;;-5.60;99.90;;;;;;5102888;28;20222;-79
2022/03/09 04:18:10;;;;;;;18.40;12.23;;;-5.70;99.90;;;;;;5102917;28;20197;-79
2022/03/09 04:20:37;;;;;;;21.60;12.47;;;-5.60;99.90;;;;;;5103380;28;20220;-78
2022/03/09 04:23:08;;;;;;;22.37;12.43;;;-5.70;99.90;;;;;;5105088;28;20193;-80
2022/03/09 04:25:35;;;;;;;23.73;13.23;;;-5.50;99.90;;;;;;5104334;28;20289;-80
2022/03/09 04:28:02;;;;;;;20.30;12.50;;;-5.60;99.90;;;;;;5105561;28;20196;-80
2022/03/09 04:30:30;;;;;;;20.73;12.00;;;-5.70;99.90;;;;;;5098857;28;20226;-79
2022/03/09 04:32:57;;;;;;;20.37;12.30;;;-5.80;99.90;;;;;;5097416;28;20253;-80
2022/03/09 04:35:23;;;;;;;19.90;11.57;;;-5.60;99.90;;;;;;5096177;28;20197;-79
2022/03/09 04:37:50;;;;;;;17.80;11.10;;;-5.40;99.90;;;;;;5096506;28;20691;-79
2022/03/09 04:40:18;;;;;;;18.50;11.57;;;-5.50;99.90;;;;;;5096873;28;20216;-79
2022/03/09 04:42:45;;;;;;;21.77;11.70;;;-5.50;99.90;;;;;;5097094;28;20257;-79
2022/03/09 04:45:12;;;;;;;19.13;11.47;;;-5.40;99.90;;;;;;5096624;28;20212;-79
2022/03/09 04:47:39;;;;;;;20.83;12.10;;;-5.50;99.90;;;;;;5095227;28;20596;-78
2022/03/09 04:50:06;;;;;;;19.40;12.57;;;-5.40;99.90;;;;;;5094289;28;20273;-78
2022/03/09 04:52:33;;;;;;;18.53;11.50;;;-5.50;99.90;;;;;;5094440;28;20865;-78
2022/03/09 04:55:00;;;;;;;17.10;11.00;;;-5.50;99.90;;;;;;5076454;28;20192;-78
2022/03/09 04:57:28;;;;;;;18.10;11.10;;;-5.60;99.90;;;;;;5094651;28;20243;-79
2022/03/09 04:59:54;;;;;;;19.10;11.30;;;-5.70;99.90;;;;;;5094261;28;20245;-79
2022/03/09 05:02:21;;;;;;;19.63;11.47;;;-5.90;99.90;;;;;;5077394;28;20208;-79
2022/03/09 05:04:48;;;;;;;18.57;12.10;;;-5.80;99.90;;;;;;5096780;28;20694;-78
2022/03/09 05:07:15;;;;;;;19.67;10.70;;;-5.70;99.90;;;;;;5095470;28;20204;-78
2022/03/09 05:09:42;;;;;;;19.33;12.23;;;-5.90;99.90;;;;;;5094903;28;20227;-78
2022/03/09 05:12:09;;;;;;;20.50;11.70;;;-5.90;99.90;;;;;;5096969;28;20253;-79
2022/03/09 05:14:37;;;;;;;22.07;12.40;;;-5.90;99.90;;;;;;5099710;28;20192;-78
2022/03/09 05:17:04;;;;;;;20.50;11.83;;;-6.00;99.90;;;;;;5099875;28;20204;-78
2022/03/09 05:19:31;;;;;;;22.80;12.43;;;-6.10;99.90;;;;;;5100128;28;20724;-78
2022/03/09 05:21:58;;;;;;;20.40;12.27;;;-6.10;99.90;;;;;;5100249;28;20253;-79
2022/03/09 05:24:24;;;;;;;18.90;12.23;;;-6.20;99.90;;;;;;5101915;28;20200;-78
2022/03/09 05:26:51;;;;;;;21.67;12.70;;;-6.10;99.90;;;;;;5105106;28;20218;-79
2022/03/09 05:29:18;;;;;;;20.90;12.87;;;-6.10;99.90;;;;;;5103196;28;20210;-78
2022/03/09 05:31:46;;;;;;;22.17;13.03;;;-6.10;99.90;;;;;;5099703;28;20200;-79
2022/03/09 05:34:13;;;;;;;23.80;14.00;;;-6.10;99.90;;;;;;5100476;28;20200;-78
2022/03/09 05:36:39;;;;;;;25.70;13.87;;;-6.00;99.90;;;;;;5099938;28;20200;-79
2022/03/09 05:39:06;;;;;;;24.67;13.57;;;-6.00;99.90;;;;;;5100313;28;20196;-78
2022/03/09 05:41:34;;;;;;;23.23;13.03;;;-6.00;99.90;;;;;;5100200;28;20276;-78
2022/03/09 05:44:01;;;;;;;24.90;13.60;;;-6.00;99.90;;;;;;5099254;28;20208;-79
2022/03/09 05:46:28;;;;;;;27.17;13.30;;;-6.00;99.90;;;;;;5098697;28;20676;-78
2022/03/09 05:48:56;;;;;;;24.40;13.47;;;-6.00;99.90;;;;;;5098876;28;20196;-78
2022/03/09 05:51:23;;;;;;;23.80;14.63;;;-5.90;99.90;;;;;;5098503;28;20197;-78
2022/03/09 05:53:49;;;;;;;26.53;15.13;;;-5.80;99.90;;;;;;5099351;28;20735;-79
2022/03/09 05:56:16;;;;;;;25.33;15.00;;;-5.70;99.90;;;;;;5099962;28;20199;-78
2022/03/09 05:58:43;;;;;;;26.53;15.73;;;-5.80;99.90;;;;;;5098027;28;20196;-78
2022/03/09 06:01:10;;;;;;;27.73;15.30;;;-5.80;99.90;;;;;;5079786;28;20277;-78
2022/03/09 06:03:36;;;;;;;23.77;15.00;;;-5.80;99.90;;;;;;5098738;28;20192;-79
2022/03/09 06:06:05;;;;;;;29.43;14.30;;;-5.80;99.90;;;;;;5100181;28;20200;-78
2022/03/09 06:08:32;;;;;;;22.73;13.70;;;-5.70;99.90;;;;;;5099599;28;20218;-78
2022/03/09 06:10:59;;;;;;;25.70;15.30;;;-5.70;99.90;;;;;;5100101;28;20227;-78
2022/03/09 06:13:25;;;;;;;26.23;14.63;;;-5.60;99.90;;;;;;5100328;28;20192;-79
2022/03/09 06:15:52;;;;;;;29.13;14.10;;;-5.50;99.90;;;;;;5102447;28;20226;-79
2022/03/09 06:18:19;;;;;;;24.90;14.70;;;-5.40;99.90;;;;;;5087636;28;20200;-79
2022/03/09 06:20:46;;;;;;;29.07;15.27;;;-5.30;99.90;;;;;;5104190;28;20238;-80
2022/03/09 06:23:14;;;;;;;29.17;15.23;;;-5.00;99.90;;;;;;5105429;28;20198;-78
2022/03/09 06:25:41;;;;;;;27.30;14.67;;;-5.00;99.90;;;;;;5106064;28;20196;-79
2022/03/09 06:28:07;;;;;;;24.67;14.63;;;-4.80;99.90;;;;;;5105616;28;20201;-78
2022/03/09 06:30:34;;;;;;;25.47;14.60;;;-4.70;99.90;;;;;;5105914;28;20594;-79
2022/03/09 06:33:01;;;;;;;26.17;14.60;;;-4.60;99.90;;;;;;5104060;28;20206;-77
2022/03/09 06:35:28;;;;;;;25.27;14.50;;;-4.50;99.90;;;;;;5102511;28;20201;-79
2022/03/09 06:37:55;;;;;;;37.93;15.50;;;-4.40;99.90;;;;;;5098259;28;20197;-78
2022/03/09 06:40:23;;;;;;;26.17;14.83;;;-4.20;99.90;;;;;;5098379;28;20254;-78
2022/03/09 06:42:50;;;;;;;34.03;15.77;;;-4.10;99.90;;;;;;5100278;28;20251;-79
2022/03/09 06:45:16;;;;;;;30.53;16.83;;;-4.10;99.90;;;;;;5098046;28;20223;-78
2022/03/09 06:47:43;;;;;;;30.27;17.07;;;-3.90;99.90;;;;;;5097545;28;20231;-80
2022/03/09 06:50:11;;;;;;;31.87;16.20;;;-3.80;99.90;;;;;;5098124;28;20212;-79
2022/03/09 06:52:38;;;;;;;30.73;16.63;;;-3.70;99.90;;;;;;5096730;28;20207;-78
2022/03/09 06:55:08;;;;;;;29.87;17.20;;;-3.60;99.90;;;;;;5096654;28;20194;-77
2022/03/09 06:57:37;;;;;;;27.23;16.10;;;-3.50;99.90;;;;;;5104077;28;20197;-75
2022/03/09 07:00:05;;;;;;;34.40;17.60;;;-3.40;99.90;;;;;;5108199;28;20194;-79
2022/03/09 07:02:32;;;;;;;30.10;16.87;;;-3.30;99.90;;;;;;5104432;28;20227;-79
2022/03/09 07:04:59;;;;;;;34.97;17.37;;;-3.10;99.90;;;;;;5105257;28;20198;-83
2022/03/09 07:07:26;;;;;;;32.03;17.47;;;-3.00;99.90;;;;;;5082828;28;20202;-78
2022/03/09 07:09:52;;;;;;;32.10;16.83;;;-2.90;99.90;;;;;;5082047;28;20232;-79
2022/03/09 07:12:19;;;;;;;30.60;16.47;;;-2.70;99.90;;;;;;5107359;28;20220;-82
2022/03/09 07:14:47;;;;;;;30.53;16.53;;;-2.60;99.90;;;;;;5088828;28;20222;-78
2022/03/09 07:17:13;;;;;;;29.43;17.07;;;-2.50;99.90;;;;;;5102256;28;20245;-80
2022/03/09 07:19:40;;;;;;;28.23;16.63;;;-2.40;99.90;;;;;;5102691;28;20204;-79
2022/03/09 07:22:07;;;;;;;29.43;15.57;;;-2.20;99.90;;;;;;5099779;28;20224;-79
2022/03/09 07:24:34;;;;;;;29.17;16.13;;;-2.10;99.90;;;;;;5097899;28;20207;-80
2022/03/09 07:27:01;;;;;;;28.40;15.23;;;-1.90;99.90;;;;;;5100695;28;20196;-79
2022/03/09 07:29:28;;;;;;;22.47;13.80;;;-1.80;99.90;;;;;;5101734;28;20241;-79
2022/03/09 07:31:57;;;;;;;27.10;14.70;;;-1.60;99.90;;;;;;5099153;28;20598;-80
2022/03/09 07:34:26;;;;;;;25.00;14.67;;;-1.40;99.90;;;;;;5097065;28;20582;-78
2022/03/09 07:36:53;;;;;;;25.30;14.47;;;-1.30;99.90;;;;;;5097500;28;20200;-79
2022/03/09 07:39:20;;;;;;;28.80;15.10;;;-1.10;99.90;;;;;;5207610;22;20212;-77
2022/03/09 07:41:47;;;;;;;31.63;15.13;;;-0.80;99.90;;;;;;5096503;28;20220;-78
2022/03/09 07:44:15;;;;;;;23.70;13.77;;;-0.70;99.90;;;;;;5099204;28;20204;-78
2022/03/09 07:46:42;;;;;;;27.50;14.43;;;-0.50;99.90;;;;;;5101024;28;20200;-80
2022/03/09 07:49:10;;;;;;;19.40;12.63;;;-0.30;99.90;;;;;;5099231;28;20196;-78
2022/03/09 07:51:37;;;;;;;20.33;12.87;;;-0.10;99.90;;;;;;5101018;28;20246;-79
2022/03/09 07:54:03;;;;;;;19.23;11.47;;;0.20;99.90;;;;;;5099415;28;20258;-79
2022/03/09 07:56:30;;;;;;;20.17;12.07;;;0.50;99.90;;;;;;5097752;28;20659;-78
2022/03/09 07:58:57;;;;;;;17.00;11.30;;;0.70;99.90;;;;;;5095768;28;20780;-77
2022/03/09 08:01:24;;;;;;;17.17;11.53;;;0.90;99.90;;;;;;5096193;28;20223;-77
2022/03/09 08:03:50;;;;;;;18.80;12.63;;;1.20;99.90;;;;;;5091855;28;20254;-75
2022/03/09 08:06:18;;;;;;;15.63;10.50;;;1.50;99.90;;;;;;5086904;28;20196;-76
2022/03/09 08:08:45;;;;;;;15.90;10.87;;;1.70;99.90;;;;;;5087311;28;20238;-77
2022/03/09 08:11:12;;;;;;;14.90;10.70;;;1.80;99.90;;;;;;5082636;28;20196;-76
2022/03/09 08:13:38;;;;;;;15.07;11.03;;;2.10;99.90;;;;;;5085203;28;20246;-75
2022/03/09 08:16:05;;;;;;;18.97;10.97;;;2.30;99.90;;;;;;5087032;28;20224;-77
2022/03/09 08:18:32;;;;;;;14.70;10.67;;;2.70;99.90;;;;;;5086279;28;20192;-76
2022/03/09 08:20:59;;;;;;;13.13;9.87;;;2.80;99.90;;;;;;5082134;28;20648;-76
2022/03/09 08:23:27;;;;;;;13.57;9.13;;;3.10;99.90;;;;;;5084705;28;20197;-77
2022/03/09 08:25:54;;;;;;;13.40;10.03;;;3.20;99.90;;;;;;5087785;28;20260;-75
2022/03/09 08:28:20;;;;;;;13.60;9.43;;;3.40;99.90;;;;;;5086357;28;20196;-75
2022/03/09 08:30:47;;;;;;;13.77;10.37;;;3.50;99.80;;;;;;5084815;28;20194;-75
2022/03/09 08:33:14;;;;;;;14.70;10.77;;;3.60;98.70;;;;;;5083969;28;20204;-77
2022/03/09 08:35:41;;;;;;;14.23;10.37;;;3.80;99.90;;;;;;5091817;28;20203;-79
2022/03/09 08:38:08;;;;;;;14.73;9.57;;;4.10;97.10;;;;;;5069124;28;20195;-78
2022/03/09 08:40:36;;;;;;;14.50;10.43;;;4.10;97.20;;;;;;5083770;28;20223;-77
2022/03/09 08:43:02;;;;;;;15.03;10.67;;;4.10;97.00;;;;;;5083719;28;20228;-77
2022/03/09 08:45:29;;;;;;;13.87;10.07;;;4.30;96.40;;;;;;5088250;28;20242;-78
2022/03/09 08:47:56;;;;;;;15.90;10.67;;;4.40;92.30;;;;;;5100874;28;20250;-76
2022/03/09 08:50:22;;;;;;;14.50;10.43;;;4.60;89.10;;;;;;5102589;28;20246;-77
2022/03/09 08:52:49;;;;;;;18.87;10.17;;;4.70;88.60;;;;;;5099978;28;20204;-76
2022/03/09 08:55:16;;;;;;;13.40;9.50;;;5.00;84.20;;;;;;5100756;28;20200;-77
2022/03/09 08:57:44;;;;;;;13.67;10.00;;;5.10;75.10;;;;;;5092752;28;20200;-77
2022/03/09 09:00:12;;;;;;;16.63;10.40;;;5.30;69.10;;;;;;5077644;28;20197;-77
2022/03/09 09:02:38;;;;;;;13.70;9.90;;;5.40;64.90;;;;;;5086887;28;20273;-77
2022/03/09 09:05:06;;;;;;;13.27;9.27;;;5.60;59.60;;;;;;5097716;28;20253;-77
2022/03/09 09:07:33;;;;;;;13.47;9.70;;;5.60;59.70;;;;;;5098155;28;20192;-78
2022/03/09 09:09:59;;;;;;;10.77;9.20;;;5.80;58.30;;;;;;5097543;28;20207;-77
2022/03/09 09:12:26;;;;;;;11.80;9.30;;;6.00;57.10;;;;;;5097040;28;20715;-77
2022/03/09 09:14:54;;;;;;;11.27;9.60;;;6.20;56.20;;;;;;5096796;28;20659;-77
2022/03/09 09:17:21;;;;;;;15.40;10.53;;;6.50;55.80;;;;;;5095891;28;20205;-79
2022/03/09 09:19:47;;;;;;;13.07;10.20;;;6.70;54.60;;;;;;5096378;28;20192;-77
2022/03/09 09:22:14;;;;;;;13.00;8.67;;;7.00;52.50;;;;;;5095669;28;20560;-80
2022/03/09 09:24:40;;;;;;;14.87;9.63;;;7.10;48.10;;;;;;5095896;28;20245;-79
2022/03/09 09:27:07;;;;;;;17.20;9.70;;;7.30;48.20;;;;;;5095024;28;20200;-77
2022/03/09 09:29:34;;;;;;;14.53;9.40;;;7.50;47.00;;;;;;5093797;28;20260;-77
2022/03/09 09:32:02;;;;;;;15.20;10.10;;;7.70;45.10;;;;;;5095649;28;20556;-79
2022/03/09 09:34:29;;;;;;;14.57;9.40;;;7.90;43.90;;;;;;5095715;28;20222;-77
2022/03/09 09:36:56;;;;;;;12.03;8.87;;;8.20;41.60;;;;;;5095048;28;20283;-77
2022/03/09 09:39:24;;;;;;;13.13;9.60;;;8.50;41.80;;;;;;5095353;28;20269;-76
2022/03/09 09:41:52;;;;;;;11.17;8.80;;;8.90;38.10;;;;;;5095469;28;20220;-78
2022/03/09 09:44:21;;;;;;;14.53;8.93;;;9.10;37.10;;;;;;5095849;28;20296;-77
2022/03/09 09:46:48;;;;;;;11.63;8.37;;;9.30;33.10;;;;;;5095609;28;20235;-77
2022/03/09 09:49:23;;;;;;;10.50;8.20;;;9.10;32.40;;;;;;5096106;28;20246;-76
2022/03/09 09:51:51;;;;;;;11.27;9.07;;;8.60;30.70;;;;;;5096182;28;20640;-78
2022/03/09 09:54:19;;;;;;;13.23;8.77;;;9.10;31.90;;;;;;5096487;28;20204;-77
2022/03/09 09:56:46;;;;;;;11.80;8.63;;;9.60;31.30;;;;;;5096034;28;20196;-75
2022/03/09 09:59:13;;;;;;;9.43;8.40;;;9.80;30.30;;;;;;5071416;28;20656;-76
2022/03/09 10:01:41;;;;;;;10.15;8.68;;;10.20;28.40;;;;;;5093155;28;20242;-78
2022/03/09 10:04:08;;;;;;;12.43;8.93;;;10.20;28.40;;;;;;5098144;28;20197;-79
2022/03/09 10:06:38;;;;;;;10.95;8.80;;;10.70;27.60;;;;;;5099830;28;20227;-80
2022/03/09 10:09:06;;;;;;;16.23;9.38;;;10.80;25.80;;;;;;5100316;28;20235;-78
2022/03/09 10:11:49;;;;;;;12.70;8.75;;;10.90;26.30;;;;;;5085100;28;20208;-79
2022/03/09 10:14:17;;;;;;;11.30;8.98;;;11.40;25.10;;;;;;5074803;28;20203;-79
2022/03/09 10:17:05;;;;;;;10.52;8.75;;;11.60;24.10;;;;;;5074499;28;20242;-80
2022/03/09 10:19:34;;;;;;;11.07;8.60;;;12.00;24.00;;;;;;5074815;28;20254;-80
2022/03/09 10:22:25;;;;;;;10.65;8.57;;;12.00;23.10;;;;;;5074739;28;20543;-81
2022/03/09 10:24:53;;;;;;;10.90;8.55;;;12.60;23.60;;;;;;5074202;28;20196;-81
2022/03/09 10:27:38;;;;;;;9.52;7.53;;;13.00;21.70;;;;;;5076664;28;21393;-80
2022/03/09 10:30:07;;;;;;;8.40;7.05;;;13.10;19.10;;;;;;5074062;28;20192;-80
2022/03/09 10:32:56;;;;;;;8.50;7.07;;;13.20;17.40;;;;;;5074440;28;20192;-82
2022/03/09 10:35:40;;;;;;;7.25;6.47;;;13.50;16.60;;;;;;5079508;28;20272;-79
2022/03/09 10:38:21;;;;;;;9.45;6.95;;;13.80;15.30;;;;;;5076701;28;20203;-78
2022/03/09 10:40:50;;;;;;;9.63;7.03;;;14.40;15.60;;;;;;5077736;28;20220;-78
2022/03/09 10:43:19;;;;;;;8.50;7.18;;;14.80;14.20;;;;;;5075319;28;20239;-78
2022/03/09 10:45:59;;;;;;;8.77;7.40;;;14.70;14.00;;;;;;5074080;28;20201;-78
2022/03/09 10:48:26;;;;;;;7.95;7.15;;;15.40;14.10;;;;;;5074318;28;20208;-79
2022/03/09 10:50:54;;;;;;;8.20;7.50;;;16.10;13.80;;;;;;5074964;28;20254;-79
2022/03/09 10:53:22;;;;;;;8.63;6.97;;;16.30;13.00;;;;;;5075643;28;20197;-77
2022/03/09 10:55:50;;;;;;;8.10;6.95;;;16.60;12.00;;;;;;5074889;28;20607;-80
2022/03/09 10:58:18;;;;;;;8.48;7.13;;;17.00;11.80;;;;;;5074831;28;20288;-80
2022/03/09 11:00:47;;;;;;;7.43;6.75;;;17.60;11.40;;;;;;5075734;28;20201;-79
2022/03/09 11:03:16;;;;;;;9.55;6.63;;;18.20;10.40;;;;;;5078713;28;20235;-78
2022/03/09 11:05:54;;;;;;;7.38;6.68;;;18.10;9.20;;;;;;5094831;28;20294;-82
2022/03/09 11:08:24;;;;;;;10.00;7.20;;;18.20;9.50;;;;;;5095585;28;20218;-80
2022/03/09 11:10:51;;;;;;;7.03;6.32;;;18.40;9.00;;;;;;5094855;28;20609;-79
2022/03/09 11:13:18;;;;;;;7.20;6.10;;;18.40;7.90;;;;;;5097193;28;20706;-79
2022/03/09 11:15:47;;;;;;;9.27;6.53;;;19.00;7.80;;;;;;5096935;28;20708;-79
2022/03/09 11:18:17;;;;;;;7.45;6.40;;;19.00;7.10;;;;;;5101432;28;20192;-81
2022/03/09 11:20:44;;;;;;;6.85;6.13;;;19.20;6.20;;;;;;5099125;28;20655;-81
2022/03/09 11:23:12;;;;;;;9.32;6.57;;;19.20;6.40;;;;;;5097437;28;20591;-81
2022/03/09 11:25:43;;;;;;;7.80;7.05;;;18.60;6.30;;;;;;5079649;28;20630;-81
2022/03/09 11:28:12;;;;;;;7.68;6.55;;;18.00;8.00;;;;;;5094911;28;20302;-82
2022/03/09 11:30:53;;;;;;;8.73;6.90;;;19.60;7.60;;;;;;5094812;28;20241;-79
2022/03/09 11:33:35;;;;;;;9.40;7.15;;;20.60;7.10;;;;;;5093826;28;20200;-80
2022/03/09 11:36:02;;;;;;;7.32;6.63;;;21.00;6.20;;;;;;5094247;28;20195;-82
2022/03/09 11:38:40;;;;;;;7.10;6.38;;;21.00;5.80;;;;;;5093345;28;20199;-81
2022/03/09 11:41:18;;;;;;;9.90;6.82;;;21.30;6.10;;;;;;5093826;28;20290;-81
2022/03/09 11:43:45;;;;;;;9.30;6.47;;;21.20;5.10;;;;;;5093635;28;20235;-81
2022/03/09 11:46:12;;;;;;;10.05;6.50;;;21.70;5.10;;;;;;5090007;28;20619;-79
2022/03/09 11:48:52;;;;;;;7.97;6.63;;;22.40;4.90;;;;;;5091339;28;20253;-79
2022/03/09 11:51:19;;;;;;;7.28;6.57;;;22.30;4.30;;;;;;5088661;28;20273;-79
2022/03/09 11:53:48;;;;;;;7.13;6.40;;;22.90;4.30;;;;;;5086065;28;20200;-79
2022/03/09 11:56:35;;;;;;;6.78;6.18;;;22.70;3.10;;;;;;5072076;28;20603;-80
2022/03/09 11:59:29;;;;;;;6.88;6.28;;;22.80;3.70;;;;;;5072614;28;20197;-80
2022/03/09 12:02:39;;;;;;;9.73;6.72;;;23.60;3.30;;;;;;5026070;28;20208;-79
2022/03/09 12:05:06;;;;;;;8.70;7.00;;;23.90;2.70;;;;;;5072675;28;20204;-80
2022/03/09 12:07:58;;;;;;;7.82;6.78;;;24.50;2.90;;;;;;5072670;28;20209;-79
2022/03/09 12:10:41;;;;;;;9.13;6.85;;;23.10;2.00;;;;;;5073042;28;20287;-80
2022/03/09 12:13:33;;;;;;;7.85;6.28;;;22.60;2.70;;;;;;5072528;28;20258;-79
2022/03/09 12:16:17;;;;;;;6.93;6.25;;;23.60;2.80;;;;;;5072312;28;20228;-80
2022/03/09 12:18:46;;;;;;;7.93;7.00;;;24.40;2.80;;;;;;5072584;28;20219;-79
2022/03/09 12:21:14;;;;;;;7.90;7.20;;;24.70;2.70;;;;;;5073944;28;20200;-80
2022/03/09 12:24:21;;;;;;;7.68;6.97;;;24.00;2.70;;;;;;5077004;28;20224;-80
2022/03/09 12:26:49;;;;;;;9.43;6.68;;;24.60;3.30;;;;;;4995490;28;20195;-81
2022/03/09 12:29:39;;;;;;;9.15;6.57;;;24.60;1.90;;;;;;5063929;28;20295;-80
2022/03/09 12:32:11;;;;;;;7.10;6.32;;;24.50;1.80;;;;;;5081370;28;20204;-80
2022/03/09 12:34:40;;;;;;;6.15;5.63;;;25.20;1.10;;;;;;5080233;28;20217;-79
2022/03/09 12:37:08;;;;;;;6.03;5.53;;;25.80;1.00;;;;;;5097046;28;20647;-79
2022/03/09 12:39:36;;;;;;;6.07;5.43;;;25.10;1.00;;;;;;5096518;28;20776;-79
2022/03/09 12:42:04;;;;;;;6.78;5.75;;;24.00;1.00;;;;;;5083934;28;20199;-79
2022/03/09 12:44:33;;;;;;;9.27;6.03;;;24.90;1.00;;;;;;5076690;28;20235;-78